Hlavní strana
METAR-TAF:

METAR-TAF

Letiště :

Alexander City, Alabama, Spojené státy americké

zeměpisná šířka: 32-54-53N, zeměpisná délka: 085-57-46W, výška: 209 m

Aktuální stav počasí

Zpráva byla vytvořena před 16 minutami, v 01:35 UTC
Jihojihozápadní vítr 4 kt
Teplota 14°C
Vlhkost vzduchu 94%
Tlak 1020 hPa
Viditelnost: 11.3 km
Polojasno ve výšce 800 ft
Oblačno až skoro zataženo ve výšce 2400 ft
Zataženo ve výšce 3600 ft

METAR: KALX 190135Z AUTO 20004KT 7SM SCT008 BKN024 OVC036 14/13 A3012 RMK AO2 T01400133

Čas: 19:51 (01:51 UTC)


TAF: chybějící

Stav a předpovědi počasí z více než 4 000 letišť (zprávy METAR a TAF).

Červené a žluté tečky na mapě představují dostupné meteorologické stanice.

Když kurzor umístíte na tečku, zobrazí se název stanice.

Pak kliknutím zobrazíte stav a předpověď počasí.

Chcete-li změnit mapu, kliknutím na zelené tlačítko se znaménkem +mapu přiblížíte, kliknutím na zelené tlačítko se znaménkem – mapu oddálíte a kliknutím na zelené šipky přejdete na sousední mapy.


METAR-TAF: